Time;durP1;ratioP1;P1;durP2;ratioP2;P2;SDS_P1;SDS_P2;PMS_P1;PMS_P2;Temp;Humidity;BMP_temperature;BMP_pressure;BME280_temperature;BME280_humidity;BME280_pressure;Samples;Min_cycle;Max_cycle;Signal;HPM_P1;HPM_P2
2023/07/20 00:01:52;;;;;;;1.25;0.70;;;15.70;99.90;;;;;;5006769;28;20108;-66
2023/07/20 00:04:19;;;;;;;9.23;2.70;;;15.70;99.90;;;;;;5013114;28;20103;-66
2023/07/20 00:06:46;;;;;;;5.05;1.50;;;15.70;99.90;;;;;;5018746;28;20468;-66
2023/07/20 00:09:13;;;;;;;1.30;0.70;;;15.70;99.90;;;;;;5011702;28;20053;-66
2023/07/20 00:11:47;;;;;;;3.35;0.57;;;15.60;99.90;;;;;;5016945;28;20095;-66
2023/07/20 00:14:14;;;;;;;0.60;0.52;;;15.60;99.90;;;;;;5014021;28;20084;-67
2023/07/20 00:16:41;;;;;;;3.95;0.70;;;15.60;99.90;;;;;;5018241;28;20415;-66
2023/07/20 00:19:10;;;;;;;1.50;1.17;;;15.60;99.90;;;;;;5016958;28;20052;-69
2023/07/20 00:21:40;;;;;;;2.22;0.73;;;15.50;99.90;;;;;;5016645;28;20053;-66
2023/07/20 00:24:07;;;;;;;3.10;0.77;;;15.50;99.90;;;;;;5016313;28;20062;-66
2023/07/20 00:26:34;;;;;;;4.93;1.13;;;15.50;99.90;;;;;;5014296;28;20056;-68
2023/07/20 00:29:01;;;;;;;3.17;0.90;;;15.50;99.90;;;;;;5010941;28;20042;-67
2023/07/20 00:31:29;;;;;;;1.73;0.70;;;15.50;99.90;;;;;;5018893;28;20433;-67
2023/07/20 00:33:56;;;;;;;1.15;0.70;;;15.40;99.90;;;;;;5039423;28;20054;-66
2023/07/20 00:36:23;;;;;;;0.95;0.47;;;15.40;99.90;;;;;;5017443;28;20069;-67
2023/07/20 00:38:50;;;;;;;4.47;0.93;;;15.40;99.90;;;;;;5014007;28;20051;-67
2023/07/20 00:41:17;;;;;;;0.65;0.63;;;15.40;99.90;;;;;;5010241;28;20041;-66
2023/07/20 00:43:44;;;;;;;1.08;0.65;;;15.30;99.90;;;;;;5012612;28;20038;-66
2023/07/20 00:46:11;;;;;;;2.70;0.65;;;15.30;99.90;;;;;;5005410;28;20061;-66
2023/07/20 00:48:39;;;;;;;4.75;0.65;;;15.30;99.90;;;;;;5051704;28;20050;-68
2023/07/20 00:51:06;;;;;;;4.97;0.80;;;15.30;99.90;;;;;;5007769;28;20675;-66
2023/07/20 00:53:33;;;;;;;2.40;0.50;;;15.30;99.90;;;;;;5013995;28;20057;-65
2023/07/20 00:56:01;;;;;;;2.17;1.02;;;15.20;99.90;;;;;;5013957;28;20050;-66
2023/07/20 00:58:28;;;;;;;1.23;0.65;;;15.20;99.90;;;;;;5008421;28;20161;-67
2023/07/20 01:00:55;;;;;;;2.55;0.80;;;15.20;99.90;;;;;;5015845;28;20037;-66
2023/07/20 01:03:21;;;;;;;1.75;0.82;;;15.20;99.90;;;;;;5017293;28;20747;-68
2023/07/20 01:06:18;;;;;;;4.05;1.00;;;15.20;99.90;;;;;;5015928;28;20046;-66
2023/07/20 01:08:58;;;;;;;1.67;1.05;;;15.20;99.90;;;;;;5014180;28;20058;-69
2023/07/20 01:11:37;;;;;;;2.47;0.60;;;15.10;99.90;;;;;;5016814;28;20054;-68
2023/07/20 01:14:05;;;;;;;8.43;1.45;;;15.10;99.90;;;;;;5012663;28;20070;-66
2023/07/20 01:16:33;;;;;;;1.42;0.90;;;15.00;99.90;;;;;;5017614;28;20040;-66
2023/07/20 01:19:00;;;;;;;1.23;0.77;;;15.00;99.90;;;;;;5019589;28;20053;-66
2023/07/20 01:21:36;;;;;;;1.17;0.60;;;15.00;99.90;;;;;;5013098;28;20107;-67
2023/07/20 01:24:21;;;;;;;1.90;0.80;;;15.00;99.90;;;;;;5013247;28;20045;-66
2023/07/20 01:27:06;;;;;;;8.13;1.52;;;15.00;99.90;;;;;;5020076;28;20387;-66
2023/07/20 01:30:00;;;;;;;1.58;0.80;;;14.90;99.90;;;;;;5014322;28;20777;-66
2023/07/20 01:32:29;;;;;;;6.30;1.42;;;14.90;99.90;;;;;;5017814;28;20116;-67
2023/07/20 01:34:58;;;;;;;5.45;1.40;;;14.90;99.90;;;;;;5019741;28;20052;-68
2023/07/20 01:37:29;;;;;;;5.65;0.90;;;14.90;99.90;;;;;;5009890;28;20236;-68
2023/07/20 01:39:57;;;;;;;3.20;0.55;;;14.90;99.90;;;;;;5011618;28;20045;-67
2023/07/20 01:42:24;;;;;;;4.22;0.93;;;14.80;99.90;;;;;;5012011;28;20061;-66
2023/07/20 01:44:54;;;;;;;1.80;0.77;;;14.90;99.90;;;;;;5008145;28;20037;-66
2023/07/20 01:47:23;;;;;;;1.27;0.80;;;14.80;99.90;;;;;;5001927;28;20664;-69
2023/07/20 01:49:50;;;;;;;3.38;1.00;;;14.80;99.90;;;;;;5010645;28;20053;-66
2023/07/20 01:52:17;;;;;;;2.88;1.00;;;14.80;99.90;;;;;;5048912;28;20139;-66
2023/07/20 01:54:44;;;;;;;2.13;1.48;;;14.70;99.90;;;;;;5008712;28;20441;-66
2023/07/20 01:57:11;;;;;;;2.60;0.77;;;14.70;99.90;;;;;;5007121;28;20046;-67
2023/07/20 01:59:37;;;;;;;4.00;0.77;;;14.70;99.90;;;;;;5019845;28;20065;-66
2023/07/20 02:02:04;;;;;;;3.60;1.02;;;14.70;99.90;;;;;;5015278;28;20057;-66
2023/07/20 02:04:31;;;;;;;4.93;0.90;;;14.70;99.90;;;;;;5009146;28;20123;-67
2023/07/20 02:06:58;;;;;;;0.65;0.65;;;14.60;99.90;;;;;;5006578;28;20042;-66
2023/07/20 02:09:25;;;;;;;2.45;1.30;;;14.60;99.90;;;;;;5016971;28;20048;-66
2023/07/20 02:11:52;;;;;;;4.90;1.05;;;14.60;99.90;;;;;;5013420;28;20430;-67
2023/07/20 02:14:20;;;;;;;3.45;1.00;;;14.60;99.90;;;;;;5012905;28;20054;-68
2023/07/20 02:16:46;;;;;;;1.88;1.35;;;14.60;99.90;;;;;;5011368;28;20069;-67
2023/07/20 02:19:14;;;;;;;3.72;0.93;;;14.60;99.90;;;;;;5019086;28;20160;-66
2023/07/20 02:21:41;;;;;;;5.93;1.30;;;14.60;99.90;;;;;;5015757;28;20456;-67
2023/07/20 02:24:08;;;;;;;3.38;1.13;;;14.60;99.90;;;;;;5052201;28;20124;-67
2023/07/20 02:26:35;;;;;;;2.78;1.30;;;14.50;99.90;;;;;;5015639;28;20042;-66
2023/07/20 02:29:04;;;;;;;5.63;1.63;;;14.50;99.90;;;;;;5016403;28;20061;-66
2023/07/20 02:31:31;;;;;;;3.30;1.08;;;14.50;99.90;;;;;;5009321;28;20046;-66
2023/07/20 02:33:58;;;;;;;5.35;1.13;;;14.40;99.90;;;;;;5018353;28;20440;-67
2023/07/20 02:36:25;;;;;;;9.05;2.72;;;14.40;99.90;;;;;;5015335;28;20123;-69
2023/07/20 02:38:52;;;;;;;3.92;0.90;;;14.40;99.90;;;;;;5015328;28;20096;-67
2023/07/20 02:41:20;;;;;;;5.15;1.58;;;14.30;99.90;;;;;;5011729;28;20073;-66
2023/07/20 02:43:46;;;;;;;2.47;1.15;;;14.30;99.90;;;;;;5010363;28;20049;-66
2023/07/20 02:46:13;;;;;;;3.95;1.38;;;14.30;99.90;;;;;;5021141;28;20046;-65
2023/07/20 02:48:40;;;;;;;5.28;2.03;;;14.30;99.90;;;;;;5014550;28;20053;-66
2023/07/20 02:51:07;;;;;;;4.97;1.27;;;14.30;99.90;;;;;;5049558;28;20112;-66
2023/07/20 02:53:34;;;;;;;1.20;0.80;;;14.30;99.90;;;;;;5010627;28;20049;-66
2023/07/20 02:56:01;;;;;;;3.47;1.30;;;14.30;99.90;;;;;;5015831;28;20061;-67
2023/07/20 02:58:28;;;;;;;2.50;2.03;;;14.30;99.90;;;;;;5011946;28;20057;-66
2023/07/20 03:00:55;;;;;;;3.72;1.25;;;14.30;99.90;;;;;;5017446;28;20136;-67
2023/07/20 03:03:22;;;;;;;3.47;1.17;;;14.30;99.90;;;;;;5010396;28;20050;-66
2023/07/20 03:05:54;;;;;;;2.33;0.90;;;14.30;99.90;;;;;;5018162;28;20052;-66
2023/07/20 03:08:21;;;;;;;2.65;1.70;;;14.30;99.90;;;;;;5015352;28;20568;-66
2023/07/20 03:10:49;;;;;;;5.45;2.30;;;14.30;99.90;;;;;;5011804;28;20573;-67
2023/07/20 03:13:16;;;;;;;5.88;1.38;;;14.20;99.90;;;;;;5015317;28;20517;-66
2023/07/20 03:15:42;;;;;;;2.50;1.00;;;14.30;99.90;;;;;;5014521;28;20104;-66
2023/07/20 03:18:09;;;;;;;2.75;1.10;;;14.30;99.90;;;;;;5012361;28;20054;-66
2023/07/20 03:20:38;;;;;;;3.88;1.50;;;14.30;99.90;;;;;;5025137;28;20514;-68
2023/07/20 03:23:05;;;;;;;1.90;1.48;;;14.20;99.90;;;;;;5014902;28;20053;-66
2023/07/20 03:25:33;;;;;;;2.45;1.60;;;14.20;99.90;;;;;;5002447;28;20053;-69
2023/07/20 03:28:00;;;;;;;2.05;1.13;;;14.30;99.90;;;;;;5011843;28;20133;-67
2023/07/20 03:30:27;;;;;;;3.50;1.27;;;14.30;99.90;;;;;;5000780;28;20045;-67
2023/07/20 03:32:54;;;;;;;4.32;1.10;;;14.20;99.90;;;;;;5008293;28;20073;-67
2023/07/20 03:35:22;;;;;;;6.50;1.80;;;14.20;99.90;;;;;;5009514;28;20046;-66
2023/07/20 03:37:49;;;;;;;3.40;1.30;;;14.20;99.90;;;;;;5018305;28;20030;-66
2023/07/20 03:40:16;;;;;;;4.45;1.50;;;14.20;99.90;;;;;;5010200;28;20077;-66
2023/07/20 03:42:43;;;;;;;3.85;1.55;;;14.20;99.90;;;;;;5026273;28;20054;-66
2023/07/20 03:45:10;;;;;;;5.10;1.58;;;14.20;99.90;;;;;;5013484;28;20099;-70
2023/07/20 03:47:37;;;;;;;6.70;1.63;;;14.30;99.90;;;;;;5007210;28;20049;-66
2023/07/20 03:50:05;;;;;;;4.38;0.85;;;14.30;99.90;;;;;;5015701;28;20057;-66
2023/07/20 03:52:32;;;;;;;2.90;1.20;;;14.20;99.90;;;;;;5011989;28;20049;-66
2023/07/20 03:54:59;;;;;;;2.53;1.10;;;14.30;99.90;;;;;;5020472;28;20083;-66
2023/07/20 03:57:26;;;;;;;8.82;1.40;;;14.20;99.90;;;;;;5019624;28;20076;-68
2023/07/20 03:59:54;;;;;;;3.33;1.55;;;14.20;99.90;;;;;;5011780;28;20037;-66
2023/07/20 04:02:22;;;;;;;5.88;1.67;;;14.20;99.90;;;;;;5015881;28;20049;-66
2023/07/20 04:04:48;;;;;;;6.38;1.90;;;14.20;99.90;;;;;;5013971;28;20041;-66
2023/07/20 04:07:15;;;;;;;4.97;1.95;;;14.20;99.90;;;;;;5045940;28;20058;-67
2023/07/20 04:09:42;;;;;;;4.70;2.00;;;14.20;99.90;;;;;;5017217;28;20480;-66
2023/07/20 04:12:09;;;;;;;6.75;2.45;;;14.20;99.90;;;;;;5012519;28;20428;-67
2023/07/20 04:14:36;;;;;;;2.80;1.63;;;14.20;99.90;;;;;;5013685;28;20042;-66
2023/07/20 04:17:04;;;;;;;4.15;1.80;;;14.20;99.90;;;;;;5019765;28;20049;-66
2023/07/20 04:19:31;;;;;;;5.05;2.67;;;14.30;99.90;;;;;;5019798;28;20034;-68
2023/07/20 04:21:58;;;;;;;3.08;1.30;;;14.30;99.90;;;;;;5021780;28;20128;-66
2023/07/20 04:24:25;;;;;;;4.07;2.53;;;14.20;99.90;;;;;;5011719;28;20069;-67
2023/07/20 04:26:52;;;;;;;9.38;2.42;;;14.30;99.90;;;;;;5016509;28;20127;-67
2023/07/20 04:29:19;;;;;;;7.80;2.05;;;14.30;99.90;;;;;;5018831;28;20107;-66
2023/07/20 04:31:46;;;;;;;1.77;1.15;;;14.30;99.90;;;;;;5047665;28;20100;-66
2023/07/20 04:34:13;;;;;;;3.50;1.63;;;14.40;99.90;;;;;;5015648;28;20060;-67
2023/07/20 04:36:41;;;;;;;3.55;1.05;;;14.40;99.90;;;;;;5013844;28;20045;-66
2023/07/20 04:39:09;;;;;;;3.85;1.33;;;14.40;99.90;;;;;;5020881;28;20041;-67
2023/07/20 04:41:52;;;;;;;5.90;3.08;;;14.40;99.90;;;;;;5016660;28;20076;-68
2023/07/20 04:44:19;;;;;;;2.47;1.40;;;14.40;99.90;;;;;;5013464;28;20072;-66
2023/07/20 04:46:46;;;;;;;11.32;2.95;;;14.40;99.90;;;;;;5020308;28;20053;-66
2023/07/20 04:49:13;;;;;;;3.50;1.65;;;14.40;99.90;;;;;;5012878;28;20139;-67
2023/07/20 04:51:42;;;;;;;7.00;1.98;;;14.40;99.90;;;;;;5050421;28;20060;-68
2023/07/20 04:54:09;;;;;;;4.85;1.65;;;14.40;99.90;;;;;;5011976;28;20044;-68
2023/07/20 04:56:37;;;;;;;7.93;2.10;;;14.50;99.90;;;;;;5045273;28;20562;-66
2023/07/20 04:59:07;;;;;;;5.63;2.72;;;14.50;99.90;;;;;;5044415;28;20483;-68
2023/07/20 05:01:34;;;;;;;7.20;1.52;;;14.50;99.90;;;;;;5045536;28;20052;-67
2023/07/20 05:04:01;;;;;;;5.18;2.05;;;14.50;99.90;;;;;;5015315;28;20133;-66
2023/07/20 05:06:28;;;;;;;2.80;1.92;;;14.50;99.90;;;;;;5007748;28;20209;-68
2023/07/20 05:08:55;;;;;;;5.35;1.77;;;14.60;99.90;;;;;;5017388;28;20410;-66
2023/07/20 05:11:22;;;;;;;7.90;1.77;;;14.60;99.90;;;;;;5008197;28;20046;-67
2023/07/20 05:13:50;;;;;;;2.67;1.60;;;14.60;99.90;;;;;;5027803;28;20531;-66
2023/07/20 05:16:17;;;;;;;5.80;1.73;;;14.60;99.90;;;;;;5039726;28;20050;-66
2023/07/20 05:18:44;;;;;;;2.22;1.98;;;14.60;99.90;;;;;;5015712;28;20056;-68
2023/07/20 05:21:13;;;;;;;4.78;1.75;;;14.70;99.90;;;;;;5014544;28;20605;-65
2023/07/20 05:23:40;;;;;;;3.60;1.35;;;14.70;99.90;;;;;;5053944;28;20106;-65
2023/07/20 05:26:07;;;;;;;2.17;1.52;;;14.80;99.90;;;;;;5003498;28;20050;-66
2023/07/20 05:28:34;;;;;;;4.57;1.33;;;14.80;99.90;;;;;;5019730;28;20414;-66
2023/07/20 05:31:03;;;;;;;5.22;1.70;;;14.90;99.90;;;;;;5006513;28;20126;-66
2023/07/20 05:33:30;;;;;;;3.35;1.92;;;14.90;99.90;;;;;;5018269;28;20438;-66
2023/07/20 05:35:57;;;;;;;2.80;2.28;;;14.90;99.90;;;;;;5012857;28;20065;-67
2023/07/20 05:38:24;;;;;;;5.80;2.22;;;14.90;99.90;;;;;;5015159;28;20038;-66
2023/07/20 05:40:51;;;;;;;5.47;1.73;;;14.90;99.90;;;;;;5007703;28;20048;-65
2023/07/20 05:43:17;;;;;;;2.22;2.00;;;14.80;99.90;;;;;;5017804;28;20107;-65
2023/07/20 05:45:46;;;;;;;4.60;2.58;;;14.90;99.90;;;;;;5008911;28;20559;-66
2023/07/20 05:48:13;;;;;;;4.63;2.40;;;14.90;99.90;;;;;;5017658;28;20042;-67
2023/07/20 05:50:43;;;;;;;6.80;2.55;;;15.00;99.90;;;;;;5010137;28;20468;-66
2023/07/20 05:53:10;;;;;;;6.00;2.53;;;15.00;99.90;;;;;;5017999;28;20083;-66
2023/07/20 05:55:39;;;;;;;3.25;1.58;;;15.00;99.90;;;;;;5010262;28;20045;-67
2023/07/20 05:58:06;;;;;;;4.88;2.22;;;15.00;99.90;;;;;;5013914;28;20077;-65
2023/07/20 06:00:33;;;;;;;3.17;2.20;;;15.10;99.90;;;;;;5008446;28;20113;-66
2023/07/20 06:02:59;;;;;;;15.55;3.00;;;15.10;99.90;;;;;;5006809;28;20046;-67
2023/07/20 06:05:26;;;;;;;8.05;1.65;;;15.10;99.90;;;;;;5009303;28;20200;-66
2023/07/20 06:07:57;;;;;;;6.18;2.85;;;15.10;99.90;;;;;;5015425;28;20062;-66
2023/07/20 06:10:24;;;;;;;4.20;1.83;;;15.10;99.90;;;;;;5008049;28;20045;-66
2023/07/20 06:12:51;;;;;;;8.90;2.50;;;15.10;99.90;;;;;;5011245;28;20114;-66
2023/07/20 06:15:31;;;;;;;6.00;2.35;;;15.10;99.90;;;;;;5020900;28;20168;-66
2023/07/20 06:17:58;;;;;;;4.95;1.65;;;15.20;99.90;;;;;;5014581;28;20053;-65
2023/07/20 06:20:25;;;;;;;8.82;1.70;;;15.20;99.90;;;;;;5015368;28;20056;-66
2023/07/20 06:22:52;;;;;;;5.47;2.28;;;15.20;99.90;;;;;;5012828;28;20041;-65
2023/07/20 06:25:20;;;;;;;4.43;2.05;;;15.10;99.90;;;;;;5015140;28;20128;-66
2023/07/20 06:27:51;;;;;;;7.68;2.05;;;15.10;99.90;;;;;;5011708;28;20049;-66
2023/07/20 06:30:18;;;;;;;4.00;1.60;;;15.00;99.90;;;;;;5019389;28;20057;-66
2023/07/20 06:32:45;;;;;;;3.65;1.38;;;15.00;99.90;;;;;;5015120;28;20042;-65
2023/07/20 06:35:12;;;;;;;5.30;1.42;;;14.90;99.90;;;;;;5012949;28;20618;-66
2023/07/20 06:37:39;;;;;;;2.65;1.33;;;15.00;99.90;;;;;;5015573;28;20529;-66
2023/07/20 06:40:08;;;;;;;6.03;2.42;;;15.00;99.90;;;;;;5016685;28;20069;-65
2023/07/20 06:42:38;;;;;;;3.95;1.88;;;15.10;99.90;;;;;;5013214;28;20401;-65
2023/07/20 06:45:08;;;;;;;4.53;3.22;;;15.00;99.90;;;;;;5010217;28;20564;-65
2023/07/20 06:47:38;;;;;;;7.53;2.42;;;15.00;99.90;;;;;;5010157;28;20046;-65
2023/07/20 06:50:06;;;;;;;7.40;3.20;;;15.10;99.90;;;;;;5014257;28;20042;-65
2023/07/20 06:52:34;;;;;;;4.80;2.90;;;15.10;99.90;;;;;;5014143;28;20042;-65
2023/07/20 06:55:01;;;;;;;3.65;2.13;;;15.20;99.90;;;;;;5016856;28;20046;-65
2023/07/20 06:57:32;;;;;;;5.78;1.75;;;15.20;99.90;;;;;;5018119;28;20044;-65
2023/07/20 06:59:58;;;;;;;6.75;3.08;;;15.30;99.90;;;;;;5006025;28;21656;-67
2023/07/20 07:02:25;;;;;;;2.95;1.48;;;15.20;99.90;;;;;;5016165;28;20483;-67
2023/07/20 07:04:52;;;;;;;11.48;4.20;;;15.10;99.90;;;;;;5012795;28;20038;-65
2023/07/20 07:07:27;;;;;;;4.95;2.30;;;15.00;99.90;;;;;;5017124;28;20503;-66
2023/07/20 07:09:54;;;;;;;7.47;1.88;;;15.00;99.90;;;;;;5018023;28;20096;-65
2023/07/20 07:12:21;;;;;;;7.05;2.65;;;15.00;99.90;;;;;;5021735;28;20123;-65
2023/07/20 07:14:48;;;;;;;3.35;1.75;;;15.00;99.90;;;;;;5017636;28;20058;-65
2023/07/20 07:17:15;;;;;;;3.70;2.20;;;15.10;99.90;;;;;;5020935;28;20478;-65
2023/07/20 07:19:45;;;;;;;5.13;1.70;;;15.20;99.90;;;;;;5013515;28;20136;-66
2023/07/20 07:22:15;;;;;;;5.07;1.92;;;15.30;99.90;;;;;;5022251;28;20140;-66
2023/07/20 07:24:42;;;;;;;3.90;1.83;;;15.40;99.90;;;;;;5022892;28;20099;-66
2023/07/20 07:27:09;;;;;;;3.95;1.98;;;15.50;99.90;;;;;;5014489;28;20099;-65
2023/07/20 07:29:36;;;;;;;5.90;2.53;;;15.50;99.90;;;;;;5018315;28;20099;-66
2023/07/20 07:32:03;;;;;;;3.22;2.08;;;15.50;99.90;;;;;;5014875;28;20050;-65
2023/07/20 07:34:31;;;;;;;2.53;1.70;;;15.60;99.90;;;;;;5012710;28;20050;-66
2023/07/20 07:36:58;;;;;;;3.47;1.50;;;15.60;99.90;;;;;;5017553;28;20042;-66
2023/07/20 07:39:25;;;;;;;3.58;1.40;;;15.70;99.90;;;;;;5016612;28;20459;-65
2023/07/20 07:42:01;;;;;;;2.30;1.45;;;15.70;99.90;;;;;;5017685;28;20045;-66
2023/07/20 07:44:28;;;;;;;4.18;1.67;;;15.70;99.90;;;;;;5020153;28;20049;-66
2023/07/20 07:46:55;;;;;;;5.68;2.40;;;15.70;99.90;;;;;;5014863;28;20123;-68
2023/07/20 07:49:22;;;;;;;8.13;1.65;;;15.70;99.90;;;;;;5019216;28;20050;-66
2023/07/20 07:51:49;;;;;;;8.80;2.35;;;15.70;99.90;;;;;;5010768;28;20677;-66
2023/07/20 07:54:16;;;;;;;6.72;1.98;;;15.70;99.90;;;;;;5015137;28;20203;-68
2023/07/20 07:56:44;;;;;;;3.60;1.58;;;15.80;99.90;;;;;;5011335;28;20045;-66
2023/07/20 07:59:11;;;;;;;5.20;1.75;;;16.00;99.90;;;;;;5011473;28;20487;-66
2023/07/20 08:01:38;;;;;;;5.53;2.03;;;16.00;99.90;;;;;;5011100;28;20037;-65
2023/07/20 08:04:05;;;;;;;3.35;1.75;;;16.20;99.90;;;;;;5022516;28;20111;-66
2023/07/20 08:06:32;;;;;;;2.80;1.58;;;16.20;99.90;;;;;;5010310;28;20056;-66
2023/07/20 08:08:59;;;;;;;6.90;1.88;;;16.30;99.90;;;;;;5019169;28;20104;-66
2023/07/20 08:11:26;;;;;;;6.15;2.33;;;16.30;99.90;;;;;;5013994;28;20046;-67
2023/07/20 08:13:53;;;;;;;5.18;1.27;;;16.20;99.90;;;;;;5021584;28;20049;-65
2023/07/20 08:16:20;;;;;;;6.13;1.60;;;16.20;99.90;;;;;;5012715;28;20042;-66
2023/07/20 08:18:48;;;;;;;3.17;1.38;;;16.40;99.90;;;;;;5014187;28;20054;-66
2023/07/20 08:21:15;;;;;;;4.03;1.40;;;16.50;99.90;;;;;;5012745;28;20557;-66
2023/07/20 08:23:42;;;;;;;6.28;1.70;;;16.70;99.90;;;;;;5053371;28;20045;-65
2023/07/20 08:26:09;;;;;;;6.22;2.15;;;16.70;99.90;;;;;;5019501;28;20116;-65
2023/07/20 08:28:36;;;;;;;4.20;1.63;;;16.60;99.90;;;;;;5017237;28;20399;-67
2023/07/20 08:31:05;;;;;;;3.80;1.77;;;16.70;99.90;;;;;;5017081;28;20050;-66
2023/07/20 08:33:33;;;;;;;2.15;1.52;;;16.60;99.90;;;;;;5006323;28;20053;-67
2023/07/20 08:36:01;;;;;;;3.28;1.70;;;16.60;99.90;;;;;;5020143;28;20041;-66
2023/07/20 08:38:28;;;;;;;6.60;1.98;;;16.80;99.90;;;;;;5019484;28;20053;-68
2023/07/20 08:40:55;;;;;;;6.75;1.77;;;16.80;99.90;;;;;;5013949;28;20073;-67
2023/07/20 08:43:26;;;;;;;5.28;2.38;;;17.00;99.90;;;;;;5018807;28;20495;-66
2023/07/20 08:45:55;;;;;;;3.28;1.48;;;17.00;99.90;;;;;;5015246;28;20125;-66
2023/07/20 08:48:27;;;;;;;4.78;2.83;;;17.00;99.90;;;;;;5018512;28;20093;-65
2023/07/20 08:50:56;;;;;;;2.33;2.03;;;16.90;99.90;;;;;;5020884;28;20045;-66
2023/07/20 08:53:23;;;;;;;5.55;2.08;;;16.90;99.90;;;;;;5014811;28;20107;-68
2023/07/20 08:55:52;;;;;;;4.72;1.50;;;16.90;99.90;;;;;;5015374;28;20041;-66
2023/07/20 08:58:20;;;;;;;2.97;1.37;;;16.90;99.90;;;;;;5010074;28;20049;-66
2023/07/20 09:00:50;;;;;;;9.68;2.17;;;16.80;99.90;;;;;;5018770;28;20163;-66
2023/07/20 09:03:19;;;;;;;3.13;1.90;;;16.80;99.90;;;;;;5016421;28;20048;-67
2023/07/20 09:05:46;;;;;;;3.80;1.70;;;16.90;99.90;;;;;;5011125;28;20041;-66
2023/07/20 09:08:13;;;;;;;4.03;2.72;;;16.80;99.90;;;;;;5017197;28;20428;-66
2023/07/20 09:10:40;;;;;;;5.53;1.83;;;16.80;99.90;;;;;;5013574;28;20076;-66
2023/07/20 09:13:07;;;;;;;4.25;2.40;;;16.90;99.90;;;;;;5011150;28;20123;-66
2023/07/20 09:15:36;;;;;;;4.15;2.22;;;16.90;99.90;;;;;;5015537;28;20068;-66
2023/07/20 09:18:03;;;;;;;2.95;1.63;;;16.70;99.90;;;;;;5020583;28;20049;-67
2023/07/20 09:20:33;;;;;;;3.25;1.27;;;16.90;99.90;;;;;;5017472;28;20049;-67
2023/07/20 09:23:04;;;;;;;2.20;1.90;;;17.00;99.90;;;;;;5015151;28;20033;-66
2023/07/20 09:25:30;;;;;;;5.65;2.30;;;17.20;99.90;;;;;;5019279;28;20099;-66
2023/07/20 09:28:04;;;;;;;2.20;1.90;;;17.30;99.90;;;;;;5013757;28;20472;-66
2023/07/20 09:30:32;;;;;;;5.70;1.98;;;17.40;99.90;;;;;;5017806;28;20813;-69
2023/07/20 09:33:00;;;;;;;2.95;2.03;;;17.60;99.90;;;;;;5015128;28;20048;-66
2023/07/20 09:35:27;;;;;;;4.32;1.67;;;17.60;99.90;;;;;;5017657;28;20559;-68
2023/07/20 09:38:09;;;;;;;3.50;1.52;;;17.60;99.90;;;;;;5010296;28;20554;-67
2023/07/20 09:40:39;;;;;;;3.00;1.85;;;17.80;99.90;;;;;;5008794;28;20058;-68
2023/07/20 09:43:10;;;;;;;3.40;1.60;;;17.90;99.90;;;;;;5017631;28;20075;-67
2023/07/20 09:45:41;;;;;;;8.90;2.13;;;18.10;99.90;;;;;;5011937;28;20100;-66
2023/07/20 09:48:12;;;;;;;3.95;2.17;;;18.20;99.90;;;;;;4998685;28;20056;-66
2023/07/20 09:50:48;;;;;;;4.07;2.65;;;18.30;99.90;;;;;;5011400;28;20053;-66
2023/07/20 09:53:17;;;;;;;2.40;1.20;;;18.10;99.90;;;;;;5002824;28;20049;-67
2023/07/20 09:55:47;;;;;;;4.78;2.15;;;18.00;99.90;;;;;;5019271;28;20068;-67
2023/07/20 09:58:15;;;;;;;2.53;1.65;;;17.90;99.90;;;;;;5005897;28;20104;-67
2023/07/20 10:00:50;;;;;;;6.65;1.77;;;17.80;99.90;;;;;;5011156;28;20053;-68
2023/07/20 10:03:24;;;;;;;4.22;1.63;;;18.00;99.90;;;;;;5004331;28;20045;-67
2023/07/20 10:05:56;;;;;;;3.65;1.50;;;18.00;99.90;;;;;;5010740;28;20041;-67
2023/07/20 10:08:25;;;;;;;14.70;2.03;;;17.80;99.90;;;;;;5011399;28;20116;-66
2023/07/20 10:10:56;;;;;;;3.42;1.48;;;17.90;99.90;;;;;;5009232;28;20070;-67
2023/07/20 10:13:27;;;;;;;10.07;3.90;;;18.00;99.90;;;;;;5013600;28;20041;-67
2023/07/20 10:15:58;;;;;;;3.15;1.33;;;18.00;99.90;;;;;;5017451;28;20036;-66
2023/07/20 10:18:46;;;;;;;6.20;1.27;;;18.10;99.90;;;;;;5012281;28;20045;-67
2023/07/20 10:21:13;;;;;;;4.18;1.45;;;17.90;99.90;;;;;;5014347;28;20044;-68
2023/07/20 10:23:43;;;;;;;2.17;1.08;;;17.90;99.90;;;;;;5016709;28;20575;-69
2023/07/20 10:26:10;;;;;;;2.78;1.42;;;17.90;99.90;;;;;;5001649;28;20062;-69
2023/07/20 10:28:39;;;;;;;2.80;1.10;;;18.00;99.90;;;;;;5012659;28;20520;-66
2023/07/20 10:31:10;;;;;;;3.35;1.38;;;18.20;99.90;;;;;;5012507;28;20038;-65
2023/07/20 10:33:38;;;;;;;9.80;1.70;;;18.30;99.90;;;;;;5003814;28;20056;-66
2023/07/20 10:36:06;;;;;;;6.57;2.25;;;18.40;99.90;;;;;;5008054;28;20073;-67
2023/07/20 10:38:40;;;;;;;1.33;1.08;;;18.40;99.90;;;;;;5001382;28;20435;-66
2023/07/20 10:41:20;;;;;;;3.88;1.70;;;18.50;99.90;;;;;;5015082;28;20041;-66
2023/07/20 10:43:49;;;;;;;2.20;1.27;;;18.80;99.90;;;;;;5015449;28;20080;-66
2023/07/20 10:46:39;;;;;;;1.77;1.48;;;19.00;99.90;;;;;;5010989;28;20041;-66
2023/07/20 10:49:08;;;;;;;5.55;1.20;;;19.20;99.90;;;;;;5015084;28;20103;-65
2023/07/20 10:51:44;;;;;;;6.75;2.58;;;19.40;99.90;;;;;;5011768;28;20057;-66
2023/07/20 10:54:17;;;;;;;1.98;0.90;;;19.30;99.90;;;;;;5016412;28;20394;-67
2023/07/20 10:56:47;;;;;;;6.40;1.30;;;19.20;99.90;;;;;;5014933;28;20029;-66
2023/07/20 10:59:41;;;;;;;2.08;1.08;;;19.20;99.90;;;;;;5015740;28;20053;-67
2023/07/20 11:02:08;;;;;;;3.40;1.63;;;19.10;99.90;;;;;;5010459;28;20125;-65
2023/07/20 11:04:46;;;;;;;6.78;1.40;;;19.30;99.90;;;;;;5016374;28;20498;-66
2023/07/20 11:07:17;;;;;;;7.38;1.33;;;19.40;99.90;;;;;;5017600;28;20049;-66
2023/07/20 11:09:45;;;;;;;1.70;1.40;;;19.30;99.90;;;;;;5013279;28;20053;-66
2023/07/20 11:12:17;;;;;;;4.68;2.17;;;19.40;99.90;;;;;;5017111;28;20470;-65
2023/07/20 11:14:56;;;;;;;4.13;1.17;;;19.40;99.90;;;;;;5021921;28;20529;-65
2023/07/20 11:17:30;;;;;;;1.50;1.30;;;19.50;99.90;;;;;;5011940;28;20093;-68
2023/07/20 11:19:58;;;;;;;2.38;1.02;;;19.70;99.90;;;;;;5013715;28;20052;-66
2023/07/20 11:22:30;;;;;;;1.00;0.73;;;20.00;99.90;;;;;;5019337;28;20458;-66
2023/07/20 11:24:58;;;;;;;4.50;1.05;;;20.20;99.90;;;;;;5014250;28;20042;-67
2023/07/20 11:27:25;;;;;;;1.42;0.88;;;19.90;99.90;;;;;;5006383;28;20081;-66
2023/07/20 11:29:52;;;;;;;5.07;2.35;;;19.80;99.90;;;;;;5015403;28;20045;-66
2023/07/20 11:32:23;;;;;;;3.03;1.02;;;19.90;99.90;;;;;;5012659;28;20045;-66
2023/07/20 11:34:50;;;;;;;4.47;1.27;;;20.10;99.90;;;;;;5014899;28;20045;-66
2023/07/20 11:37:18;;;;;;;2.33;1.20;;;19.90;99.90;;;;;;5015402;28;20038;-67
2023/07/20 11:39:45;;;;;;;1.58;0.90;;;20.20;99.90;;;;;;5013670;28;20033;-65
2023/07/20 11:42:13;;;;;;;1.63;1.15;;;20.30;99.90;;;;;;5013558;28;20614;-66
2023/07/20 11:45:05;;;;;;;2.22;1.48;;;20.30;99.90;;;;;;5017514;28;20042;-66
2023/07/20 11:47:33;;;;;;;1.65;1.55;;;20.40;99.90;;;;;;5016084;28;20133;-66
2023/07/20 11:50:04;;;;;;;3.88;1.00;;;20.20;99.90;;;;;;5013246;28;20911;-66
2023/07/20 11:52:31;;;;;;;1.42;1.15;;;20.00;99.90;;;;;;5017486;28;20164;-65
2023/07/20 11:54:58;;;;;;;2.75;1.77;;;20.00;99.90;;;;;;5010928;28;20041;-67
2023/07/20 11:57:25;;;;;;;3.92;2.53;;;20.00;99.90;;;;;;5017338;28;20092;-66
2023/07/20 12:00:01;;;;;;;1.27;0.98;;;19.80;99.90;;;;;;5016365;28;20038;-66
2023/07/20 12:02:31;;;;;;;2.97;0.90;;;20.00;99.90;;;;;;5018123;28;20112;-66
2023/07/20 12:04:58;;;;;;;2.90;0.95;;;20.00;99.90;;;;;;5011257;28;20057;-65
2023/07/20 12:07:28;;;;;;;1.27;0.77;;;20.10;99.90;;;;;;5015180;28;20072;-65
2023/07/20 12:10:10;;;;;;;3.38;1.25;;;19.90;99.90;;;;;;5012214;28;20471;-66
2023/07/20 12:12:40;;;;;;;3.30;1.95;;;19.80;99.90;;;;;;5014077;28;20042;-65
2023/07/20 12:15:30;;;;;;;1.38;1.27;;;19.90;99.90;;;;;;4992760;28;20069;-68
2023/07/20 12:17:59;;;;;;;3.75;1.88;;;20.00;99.90;;;;;;5014206;28;20129;-66
2023/07/20 12:20:31;;;;;;;2.03;1.57;;;20.00;99.90;;;;;;5018987;28;20124;-66
2023/07/20 12:23:01;;;;;;;2.95;0.98;;;20.10;99.90;;;;;;5015104;28;20494;-66
2023/07/20 12:25:47;;;;;;;2.33;1.58;;;20.00;99.90;;;;;;5018775;28;20056;-66
2023/07/20 12:28:16;;;;;;;1.52;1.42;;;19.90;99.90;;;;;;5018556;28;20136;-66
2023/07/20 12:30:44;;;;;;;2.70;1.48;;;20.10;99.90;;;;;;5011397;28;20077;-65
2023/07/20 12:33:14;;;;;;;3.03;0.88;;;20.40;99.90;;;;;;5016417;28;20147;-66
2023/07/20 12:35:43;;;;;;;3.90;1.20;;;20.30;99.90;;;;;;5017611;28;20478;-66
2023/07/20 12:38:09;;;;;;;4.45;1.40;;;20.40;99.90;;;;;;5019791;28;20719;-66
2023/07/20 12:40:36;;;;;;;1.83;0.90;;;20.50;99.90;;;;;;5009530;28;20088;-66
2023/07/20 12:43:04;;;;;;;2.15;1.35;;;20.40;99.90;;;;;;5019121;28;20050;-66
2023/07/20 12:45:31;;;;;;;3.53;1.38;;;20.40;99.90;;;;;;5015221;28;20050;-68
2023/07/20 12:47:59;;;;;;;6.00;1.85;;;20.40;99.90;;;;;;5013573;28;20468;-65
2023/07/20 12:50:27;;;;;;;1.73;0.73;;;20.30;99.90;;;;;;5015886;28;20053;-66
2023/07/20 12:52:54;;;;;;;1.83;1.38;;;20.30;99.90;;;;;;5015437;28;20041;-66
2023/07/20 12:55:20;;;;;;;2.75;0.80;;;20.30;99.90;;;;;;5011140;28;20099;-66